createdAt,value
2019-01-03T00:00:49.461Z,1024.92
2019-01-03T00:01:49.436Z,1024.95
2019-01-03T00:02:58.255Z,1024.92
2019-01-03T00:04:53.989Z,1024.91
2019-01-03T00:05:53.881Z,1024.94
2019-01-03T00:06:53.889Z,1024.91
2019-01-03T00:07:53.901Z,1024.92
2019-01-03T00:08:53.907Z,1024.93
2019-01-03T00:09:53.820Z,1024.99
2019-01-03T00:10:53.860Z,1024.99
2019-01-03T00:11:53.821Z,1024.99
2019-01-03T00:12:53.779Z,1024.97
2019-01-03T00:13:53.799Z,1024.98
2019-01-03T00:14:53.779Z,1024.95
2019-01-03T00:15:53.771Z,1024.95
2019-01-03T00:16:53.766Z,1024.94
2019-01-03T00:17:53.736Z,1024.99
2019-01-03T00:18:53.744Z,1024.98
2019-01-03T00:19:53.691Z,1025.01
2019-01-03T00:20:53.668Z,1024.98
2019-01-03T00:21:53.685Z,1025.01
2019-01-03T00:22:53.687Z,1024.98
2019-01-03T00:23:53.724Z,1025.02
2019-01-03T00:25:03.857Z,1024.98
2019-01-03T00:26:59.356Z,1024.99
2019-01-03T00:27:59.066Z,1024.99
2019-01-03T00:28:59.309Z,1025.00
2019-01-03T00:29:59.039Z,1024.98
2019-01-03T00:30:59.038Z,1024.98
2019-01-03T00:31:59.066Z,1024.97
2019-01-03T00:32:59.006Z,1025.01
2019-01-03T00:33:59.007Z,1024.99
2019-01-03T00:34:59.011Z,1025.03
2019-01-03T00:35:58.970Z,1025.01
2019-01-03T00:36:58.987Z,1024.99
2019-01-03T00:37:58.954Z,1024.97
2019-01-03T00:38:58.918Z,1025.01
2019-01-03T00:39:58.916Z,1025.04
2019-01-03T00:40:58.922Z,1024.99
2019-01-03T00:41:58.910Z,1025.02
2019-01-03T00:42:58.927Z,1025.01
2019-01-03T00:43:58.867Z,1024.98
2019-01-03T00:44:58.848Z,1025.04
2019-01-03T00:45:58.864Z,1024.99
2019-01-03T00:46:58.825Z,1025.00
2019-01-03T00:47:58.801Z,1024.99
2019-01-03T00:48:58.792Z,1025.01
2019-01-03T00:49:58.792Z,1025.05
2019-01-03T00:50:58.766Z,1025.03
2019-01-03T00:51:58.790Z,1025.07
2019-01-03T00:52:58.774Z,1025.05
2019-01-03T00:53:58.723Z,1025.06
2019-01-03T00:54:58.723Z,1025.03
2019-01-03T00:55:58.697Z,1025.02
2019-01-03T00:56:58.693Z,1025.05
2019-01-03T00:57:58.711Z,1025.07
2019-01-03T00:58:58.669Z,1025.08
2019-01-03T00:59:58.641Z,1025.09
2019-01-03T01:00:58.639Z,1025.04
2019-01-03T01:01:58.633Z,1025.06
2019-01-03T01:02:58.640Z,1025.09
2019-01-03T01:03:58.584Z,1025.05
2019-01-03T01:04:58.572Z,1025.08
2019-01-03T01:05:58.604Z,1025.08
2019-01-03T01:06:58.558Z,1025.11
2019-01-03T01:07:58.532Z,1025.09
2019-01-03T01:08:58.526Z,1025.11
2019-01-03T01:09:58.536Z,1025.07
2019-01-03T01:10:58.506Z,1025.07
2019-01-03T01:11:58.495Z,1025.07
2019-01-03T01:12:58.468Z,1025.05
2019-01-03T01:13:58.479Z,1025.05
2019-01-03T01:14:58.451Z,1025.04
2019-01-03T01:15:58.445Z,1025.04
2019-01-03T01:16:58.443Z,1025.06
2019-01-03T01:17:58.402Z,1025.06
2019-01-03T01:18:58.381Z,1025.08
2019-01-03T01:19:58.388Z,1025.04
2019-01-03T01:20:58.396Z,1025.08
2019-01-03T01:21:58.413Z,1025.06
2019-01-03T01:22:58.368Z,1025.09
2019-01-03T01:23:58.335Z,1025.13
2019-01-03T01:24:58.309Z,1025.11
2019-01-03T01:25:58.333Z,1025.13
2019-01-03T01:26:58.299Z,1025.16
2019-01-03T01:28:07.808Z,1025.16
2019-01-03T01:30:02.732Z,1025.15
2019-01-03T01:31:02.706Z,1025.16
2019-01-03T01:32:02.680Z,1025.18
2019-01-03T01:33:02.666Z,1025.13
2019-01-03T01:34:02.656Z,1025.15
2019-01-03T01:35:02.660Z,1025.17
2019-01-03T01:36:02.644Z,1025.17
2019-01-03T01:37:02.644Z,1025.15
2019-01-03T01:38:02.610Z,1025.17
2019-01-03T01:39:02.606Z,1025.21
2019-01-03T01:41:34.709Z,1025.26
2019-01-03T01:42:34.700Z,1025.24
2019-01-03T01:43:34.672Z,1025.26
2019-01-03T01:44:34.702Z,1025.28
2019-01-03T01:45:44.197Z,1025.31
2019-01-03T01:47:39.103Z,1025.33
2019-01-03T01:48:39.071Z,1025.32
2019-01-03T01:49:39.061Z,1025.30
2019-01-03T01:50:39.040Z,1025.33
2019-01-03T01:51:39.046Z,1025.30
2019-01-03T01:52:39.016Z,1025.33
2019-01-03T01:53:39.007Z,1025.29
2019-01-03T01:54:38.993Z,1025.31
2019-01-03T01:55:38.982Z,1025.32
2019-01-03T01:56:38.956Z,1025.35
2019-01-03T01:57:38.975Z,1025.34
2019-01-03T01:58:38.981Z,1025.36
2019-01-03T01:59:38.928Z,1025.38
2019-01-03T02:00:38.904Z,1025.36
2019-01-03T02:01:38.890Z,1025.37
2019-01-03T02:02:38.896Z,1025.32
2019-01-03T02:03:38.869Z,1025.32
2019-01-03T02:04:38.858Z,1025.30
2019-01-03T02:05:38.864Z,1025.35
2019-01-03T02:06:38.827Z,1025.36
2019-01-03T02:07:38.827Z,1025.34
2019-01-03T02:08:38.859Z,1025.34
2019-01-03T02:09:38.825Z,1025.34
2019-01-03T02:10:38.768Z,1025.38
2019-01-03T02:11:38.760Z,1025.37
2019-01-03T02:12:38.762Z,1025.38
2019-01-03T02:13:38.721Z,1025.36
2019-01-03T02:14:38.739Z,1025.35
2019-01-03T02:15:38.692Z,1025.38
2019-01-03T02:16:38.680Z,1025.36
2019-01-03T02:17:38.706Z,1025.38
2019-01-03T02:18:38.676Z,1025.39
2019-01-03T02:19:38.684Z,1025.38
2019-01-03T02:20:38.637Z,1025.42
2019-01-03T02:21:38.626Z,1025.41
2019-01-03T02:22:38.628Z,1025.42
2019-01-03T02:23:38.596Z,1025.44
2019-01-03T02:24:38.573Z,1025.44
2019-01-03T02:25:38.552Z,1025.43
2019-01-03T02:26:38.557Z,1025.44
2019-01-03T02:27:38.545Z,1025.39
2019-01-03T02:28:38.557Z,1025.41
2019-01-03T02:29:38.494Z,1025.40
2019-01-03T02:30:38.536Z,1025.40
2019-01-03T02:31:38.509Z,1025.42
2019-01-03T02:32:38.469Z,1025.42
2019-01-03T02:33:38.459Z,1025.41
2019-01-03T02:34:38.440Z,1025.41
2019-01-03T02:35:38.448Z,1025.39
2019-01-03T02:36:38.407Z,1025.38
2019-01-03T02:37:38.407Z,1025.40
2019-01-03T02:38:38.390Z,1025.36
2019-01-03T02:39:38.369Z,1025.38
2019-01-03T02:40:38.350Z,1025.38
2019-01-03T02:41:38.354Z,1025.41
2019-01-03T02:42:38.315Z,1025.39
2019-01-03T02:43:38.339Z,1025.41
2019-01-03T02:44:38.309Z,1025.39
2019-01-03T02:45:38.277Z,1025.41
2019-01-03T02:46:38.263Z,1025.41
2019-01-03T02:47:38.276Z,1025.41
2019-01-03T02:48:38.246Z,1025.38
2019-01-03T02:49:38.232Z,1025.41
2019-01-03T02:50:38.216Z,1025.41
2019-01-03T02:51:38.207Z,1025.40
2019-01-03T02:52:38.193Z,1025.42
2019-01-03T02:53:38.161Z,1025.41
2019-01-03T02:54:38.154Z,1025.39
2019-01-03T02:55:38.152Z,1025.38
2019-01-03T02:56:38.159Z,1025.37
2019-01-03T02:57:38.106Z,1025.36
2019-01-03T02:58:38.094Z,1025.40
2019-01-03T03:13:53.786Z,1025.27
2019-01-03T03:14:53.772Z,1025.27
2019-01-03T03:16:59.250Z,1025.25
2019-01-03T03:17:59.199Z,1025.27
2019-01-03T03:20:03.794Z,1025.25
2019-01-03T03:21:03.710Z,1025.27
2019-01-03T03:22:03.683Z,1025.26
2019-01-03T03:23:03.691Z,1025.22
2019-01-03T03:24:03.655Z,1025.15
2019-01-03T03:25:03.661Z,1025.18
2019-01-03T03:26:03.625Z,1025.11
2019-01-03T03:27:03.612Z,1025.14
2019-01-03T03:28:03.593Z,1025.07
2019-01-03T03:29:03.583Z,1025.10
2019-01-03T03:30:03.566Z,1025.09
2019-01-03T03:31:03.547Z,1025.10
2019-01-03T03:32:03.548Z,1025.05
2019-01-03T03:33:03.547Z,1025.05
2019-01-03T03:34:03.510Z,1025.04
2019-01-03T03:35:03.509Z,1025.05
2019-01-03T03:36:03.474Z,1025.06
2019-01-03T03:37:03.485Z,1025.03
2019-01-03T03:38:03.477Z,1025.10
2019-01-03T03:39:03.423Z,1025.13
2019-01-03T03:40:03.441Z,1025.13
2019-01-03T03:41:03.411Z,1025.11
2019-01-03T03:42:03.408Z,1025.09
2019-01-03T03:43:03.445Z,1025.11
2019-01-03T03:44:03.368Z,1025.10
2019-01-03T03:45:03.372Z,1025.09
2019-01-03T03:46:03.367Z,1025.15
2019-01-03T03:47:03.318Z,1025.12
2019-01-03T03:48:03.308Z,1025.12
2019-01-03T03:49:03.309Z,1025.13
2019-01-03T03:50:03.268Z,1025.13
2019-01-03T03:51:03.266Z,1025.13
2019-01-03T03:52:03.240Z,1025.17
2019-01-03T03:53:03.221Z,1025.16
2019-01-03T03:54:03.237Z,1025.19
2019-01-03T03:55:03.195Z,1025.17
2019-01-03T03:56:03.181Z,1025.13
2019-01-03T03:57:03.193Z,1025.10
2019-01-03T03:58:03.156Z,1025.09
2019-01-03T03:59:03.179Z,1025.08
2019-01-03T04:00:03.170Z,1025.04
2019-01-03T04:01:03.119Z,1025.02
2019-01-03T04:02:03.143Z,1024.99
2019-01-03T04:03:03.088Z,1024.97
2019-01-03T04:04:03.072Z,1024.93
2019-01-03T04:05:03.056Z,1024.90
2019-01-03T04:06:03.058Z,1024.93
2019-01-03T04:07:03.034Z,1024.88
2019-01-03T04:08:03.092Z,1024.84
2019-01-03T04:09:02.997Z,1024.84
2019-01-03T04:10:03.005Z,1024.77
2019-01-03T04:11:02.969Z,1024.83
2019-01-03T04:12:02.986Z,1024.78
2019-01-03T04:13:02.936Z,1024.80
2019-01-03T04:14:11.580Z,1024.80
2019-01-03T04:15:56.349Z,1024.81
2019-01-03T04:16:56.295Z,1024.81
2019-01-03T04:17:56.277Z,1024.84
2019-01-03T04:19:04.923Z,1024.83
2019-01-03T04:21:00.769Z,1024.83
2019-01-03T04:22:10.228Z,1024.81
2019-01-03T04:24:05.145Z,1024.81
2019-01-03T04:25:05.130Z,1024.76
2019-01-03T04:26:05.118Z,1024.76
2019-01-03T04:27:05.113Z,1024.73
2019-01-03T04:28:05.086Z,1024.73
2019-01-03T04:29:05.089Z,1024.70
2019-01-03T04:30:05.073Z,1024.74
2019-01-03T04:31:05.041Z,1024.74
2019-01-03T04:32:05.020Z,1024.70
2019-01-03T04:33:05.049Z,1024.65
2019-01-03T04:34:04.999Z,1024.63
2019-01-03T04:35:05.009Z,1024.59
2019-01-03T04:36:04.966Z,1024.54
2019-01-03T04:37:04.957Z,1024.53
2019-01-03T04:38:04.970Z,1024.54
2019-01-03T04:39:04.916Z,1024.58
2019-01-03T04:40:04.910Z,1024.55
2019-01-03T04:41:04.893Z,1024.54
2019-01-03T04:42:04.880Z,1024.62
2019-01-03T04:43:04.902Z,1024.64
2019-01-03T04:44:04.850Z,1024.61
2019-01-03T04:45:04.846Z,1024.61
2019-01-03T04:46:04.856Z,1024.65
2019-01-03T04:47:04.807Z,1024.67
2019-01-03T04:48:04.793Z,1024.71
2019-01-03T04:49:04.788Z,1024.74
2019-01-03T04:50:04.773Z,1024.76
2019-01-03T04:51:04.746Z,1024.73
2019-01-03T04:52:04.746Z,1024.74
2019-01-03T04:53:04.719Z,1024.75
2019-01-03T04:54:04.713Z,1024.77
2019-01-03T04:55:04.690Z,1024.80
2019-01-03T04:56:04.692Z,1024.79
2019-01-03T04:57:04.656Z,1024.76
2019-01-03T04:58:04.674Z,1024.74
2019-01-03T04:59:04.632Z,1024.75
2019-01-03T05:00:04.615Z,1024.76
2019-01-03T05:01:04.614Z,1024.76
2019-01-03T05:02:04.626Z,1024.76
2019-01-03T05:03:04.586Z,1024.79
2019-01-03T05:04:04.580Z,1024.75
2019-01-03T05:05:04.571Z,1024.74
2019-01-03T05:06:13.193Z,1024.69
2019-01-03T05:08:19.000Z,1024.66
2019-01-03T05:09:09.995Z,1024.74
2019-01-03T05:11:49.377Z,1024.76
2019-01-03T05:12:49.363Z,1024.75
2019-01-03T05:13:49.468Z,1024.76
2019-01-03T05:14:49.356Z,1024.76
2019-01-03T05:15:49.315Z,1024.73
2019-01-03T05:16:49.297Z,1024.77
2019-01-03T05:17:49.277Z,1024.77
2019-01-03T05:18:49.269Z,1024.78
2019-01-03T05:19:49.258Z,1024.82
2019-01-03T05:20:49.280Z,1024.79
2019-01-03T05:21:49.222Z,1024.77
2019-01-03T05:22:49.220Z,1024.78
2019-01-03T05:23:49.186Z,1024.81
2019-01-03T05:24:49.173Z,1024.72
2019-01-03T05:25:49.189Z,1024.68
2019-01-03T05:26:49.141Z,1024.67
2019-01-03T05:27:49.132Z,1024.68
2019-01-03T05:28:49.111Z,1024.65
2019-01-03T05:29:49.131Z,1024.63
2019-01-03T05:30:49.087Z,1024.65
2019-01-03T05:31:49.121Z,1024.57
2019-01-03T05:32:49.073Z,1024.53
2019-01-03T05:33:49.035Z,1024.52
2019-01-03T05:34:49.025Z,1024.54
2019-01-03T05:35:49.021Z,1024.53
2019-01-03T05:36:48.993Z,1024.57
2019-01-03T05:37:49.006Z,1024.58
2019-01-03T05:38:48.964Z,1024.60
2019-01-03T05:39:48.948Z,1024.63
2019-01-03T05:40:48.942Z,1024.66
2019-01-03T05:41:48.938Z,1024.69
2019-01-03T05:42:48.933Z,1024.68
2019-01-03T05:43:48.898Z,1024.65
2019-01-03T05:44:48.888Z,1024.66
2019-01-03T05:45:48.856Z,1024.66
2019-01-03T05:46:48.859Z,1024.64
2019-01-03T05:47:48.837Z,1024.65
2019-01-03T05:48:48.827Z,1024.68
2019-01-03T05:49:48.806Z,1024.68
2019-01-03T05:50:48.810Z,1024.72
2019-01-03T05:51:48.774Z,1024.74
2019-01-03T05:52:48.762Z,1024.71
2019-01-03T05:53:48.799Z,1024.75
2019-01-03T05:54:48.757Z,1024.77
2019-01-03T05:55:48.721Z,1024.79
2019-01-03T05:56:48.705Z,1024.82
2019-01-03T05:57:48.726Z,1024.83
2019-01-03T05:58:48.672Z,1024.88
2019-01-03T05:59:48.673Z,1024.88
2019-01-03T06:00:48.683Z,1024.90
2019-01-03T06:01:48.629Z,1024.89
2019-01-03T06:02:48.609Z,1024.82
2019-01-03T06:03:48.609Z,1024.80
2019-01-03T06:04:48.607Z,1024.81
2019-01-03T06:05:48.577Z,1024.71
2019-01-03T06:06:48.583Z,1024.72
2019-01-03T06:07:48.546Z,1024.72
2019-01-03T06:08:48.561Z,1024.71
2019-01-03T06:09:48.526Z,1024.71
2019-01-03T06:10:48.518Z,1024.76
2019-01-03T06:11:48.494Z,1024.70
2019-01-03T06:12:48.475Z,1024.69
2019-01-03T06:13:48.476Z,1024.69
2019-01-03T06:14:48.444Z,1024.65
2019-01-03T06:15:48.470Z,1024.64
2019-01-03T06:16:48.431Z,1024.67
2019-01-03T06:17:48.399Z,1024.64
2019-01-03T06:18:48.421Z,1024.66
2019-01-03T06:19:48.393Z,1024.67
2019-01-03T06:20:48.374Z,1024.69
2019-01-03T06:21:48.341Z,1024.74
2019-01-03T06:22:48.326Z,1024.76
2019-01-03T06:23:48.329Z,1024.77
2019-01-03T06:24:48.327Z,1024.84
2019-01-03T06:25:48.290Z,1024.82
2019-01-03T06:26:48.281Z,1024.84
2019-01-03T06:27:48.254Z,1024.84
2019-01-03T06:28:48.277Z,1024.90
2019-01-03T06:29:48.254Z,1024.90
2019-01-03T06:30:48.223Z,1024.93
2019-01-03T06:31:48.223Z,1024.92
2019-01-03T06:32:48.191Z,1024.90
2019-01-03T06:33:48.186Z,1024.98
2019-01-03T06:34:48.168Z,1024.97
2019-01-03T06:35:48.147Z,1024.98
2019-01-03T06:36:48.126Z,1024.98
2019-01-03T06:37:48.109Z,1024.95
2019-01-03T06:38:48.103Z,1024.90
2019-01-03T06:39:48.098Z,1024.91
2019-01-03T06:40:48.107Z,1024.89
2019-01-03T06:41:48.074Z,1024.92
2019-01-03T06:42:48.065Z,1024.95
2019-01-03T06:43:48.059Z,1024.93
2019-01-03T06:44:48.081Z,1024.96
2019-01-03T06:45:48.033Z,1024.96
2019-01-03T06:46:48.016Z,1024.97
2019-01-03T06:47:47.997Z,1024.97
2019-01-03T06:48:56.651Z,1024.96
2019-01-03T06:50:52.453Z,1024.93
2019-01-03T06:51:52.410Z,1024.91
2019-01-03T06:52:52.374Z,1024.94
2019-01-03T06:53:52.364Z,1024.92
2019-01-03T06:56:56.837Z,1024.91
2019-01-03T06:57:56.805Z,1024.88
2019-01-03T06:58:56.775Z,1024.89
2019-01-03T06:59:56.769Z,1024.96
2019-01-03T07:01:04.450Z,1025.01
2019-01-03T07:03:08.891Z,1024.95
2019-01-03T07:04:09.885Z,1025.02
2019-01-03T07:05:55.176Z,1025.00
2019-01-03T07:06:54.872Z,1025.05
2019-01-03T07:07:54.765Z,1025.02
2019-01-03T07:08:54.767Z,1024.98
2019-01-03T07:09:54.729Z,1024.99
2019-01-03T07:10:54.727Z,1024.98
2019-01-03T07:11:54.701Z,1025.02
2019-01-03T07:12:54.701Z,1024.99
2019-01-03T07:13:54.698Z,1025.01
2019-01-03T07:14:54.666Z,1025.03
2019-01-03T07:15:54.652Z,1025.04
2019-01-03T07:16:54.651Z,1025.07
2019-01-03T07:17:54.624Z,1025.06
2019-01-03T07:18:54.628Z,1025.05
2019-01-03T07:19:54.590Z,1025.07
2019-01-03T07:20:54.596Z,1025.15
2019-01-03T07:21:54.562Z,1025.17
2019-01-03T07:22:54.546Z,1025.14
2019-01-03T07:23:54.534Z,1025.20
2019-01-03T07:24:54.516Z,1025.23
2019-01-03T07:25:54.553Z,1025.24
2019-01-03T07:26:54.490Z,1025.23
2019-01-03T07:27:54.477Z,1025.22
2019-01-03T07:28:54.517Z,1025.21
2019-01-03T07:29:54.475Z,1025.25
2019-01-03T07:30:54.438Z,1025.24
2019-01-03T07:31:54.423Z,1025.21
2019-01-03T07:32:54.430Z,1025.18
2019-01-03T07:33:54.415Z,1025.16
2019-01-03T07:34:54.393Z,1025.15
2019-01-03T07:35:54.412Z,1025.15
2019-01-03T07:36:54.369Z,1025.17
2019-01-03T07:37:54.354Z,1025.21
2019-01-03T07:38:54.325Z,1025.19
2019-01-03T07:39:54.304Z,1025.17
2019-01-03T07:40:54.310Z,1025.18
2019-01-03T07:41:54.291Z,1025.17
2019-01-03T07:42:54.290Z,1025.20
2019-01-03T07:43:54.253Z,1025.20
2019-01-03T07:44:54.266Z,1025.25
2019-01-03T07:45:54.303Z,1025.23
2019-01-03T07:46:54.206Z,1025.21
2019-01-03T07:47:54.206Z,1025.21
2019-01-03T07:48:54.214Z,1025.21
2019-01-03T07:49:54.173Z,1025.19
2019-01-03T07:50:54.155Z,1025.25
2019-01-03T07:51:54.151Z,1025.27
2019-01-03T07:52:54.339Z,1025.29
2019-01-03T07:53:54.124Z,1025.30
2019-01-03T07:54:54.095Z,1025.35
2019-01-03T07:55:54.094Z,1025.35
2019-01-03T07:56:54.099Z,1025.36
2019-01-03T07:57:54.054Z,1025.35
2019-01-03T07:58:54.091Z,1025.34
2019-01-03T07:59:54.037Z,1025.35
2019-01-03T08:00:54.062Z,1025.32
2019-01-03T08:01:54.042Z,1025.35
2019-01-03T08:02:54.006Z,1025.35
2019-01-03T08:03:54.016Z,1025.36
2019-01-03T08:04:54.109Z,1025.44
2019-01-03T08:05:53.978Z,1025.44
2019-01-03T08:06:53.971Z,1025.45
2019-01-03T08:07:53.938Z,1025.43
2019-01-03T08:08:53.924Z,1025.45
2019-01-03T08:09:53.962Z,1025.40
2019-01-03T08:10:53.995Z,1025.39
2019-01-03T08:11:53.884Z,1025.40
2019-01-03T08:12:53.895Z,1025.39
2019-01-03T08:13:53.949Z,1025.39
2019-01-03T08:14:53.888Z,1025.35
2019-01-03T08:15:53.892Z,1025.41
2019-01-03T08:16:53.795Z,1025.42
2019-01-03T08:17:53.816Z,1025.41
2019-01-03T08:18:53.807Z,1025.44
2019-01-03T08:19:53.793Z,1025.45
2019-01-03T08:20:53.793Z,1025.43
2019-01-03T08:21:53.773Z,1025.42
2019-01-03T08:22:53.773Z,1025.42
2019-01-03T08:23:53.714Z,1025.40
2019-01-03T08:24:53.772Z,1025.39
2019-01-03T08:25:53.678Z,1025.38
2019-01-03T08:26:53.780Z,1025.38
2019-01-03T08:27:53.706Z,1025.43
2019-01-03T08:28:53.713Z,1025.42
2019-01-03T08:29:53.701Z,1025.40
2019-01-03T08:30:53.601Z,1025.37
2019-01-03T08:31:53.610Z,1025.41
2019-01-03T08:32:53.754Z,1025.46
2019-01-03T08:33:53.647Z,1025.44
2019-01-03T08:34:53.598Z,1025.46
2019-01-03T08:35:53.626Z,1025.42
2019-01-03T08:36:53.562Z,1025.42
2019-01-03T08:37:53.665Z,1025.43
2019-01-03T08:38:53.507Z,1025.42
2019-01-03T08:39:53.559Z,1025.45
2019-01-03T08:40:53.477Z,1025.52
2019-01-03T08:41:53.489Z,1025.49
2019-01-03T08:42:53.484Z,1025.51
2019-01-03T08:43:53.479Z,1025.54
2019-01-03T08:44:53.547Z,1025.53
2019-01-03T08:45:53.418Z,1025.53
2019-01-03T08:46:53.421Z,1025.55
2019-01-03T08:47:53.514Z,1025.56
2019-01-03T08:48:53.424Z,1025.51
2019-01-03T08:49:53.366Z,1025.52
2019-01-03T08:50:53.416Z,1025.51
2019-01-03T08:51:53.385Z,1025.49
2019-01-03T08:52:53.406Z,1025.54
2019-01-03T08:53:53.336Z,1025.49
2019-01-03T08:54:53.340Z,1025.58
2019-01-03T08:55:53.321Z,1025.57
2019-01-03T08:56:53.309Z,1025.60
2019-01-03T08:57:53.320Z,1025.63
2019-01-03T08:58:53.267Z,1025.61
2019-01-03T09:00:01.906Z,1025.55
2019-01-03T09:01:57.733Z,1025.53
2019-01-03T09:02:57.704Z,1025.52
2019-01-03T09:03:57.662Z,1025.55
2019-01-03T09:04:57.684Z,1025.58
2019-01-03T09:05:57.692Z,1025.65
2019-01-03T09:06:57.694Z,1025.61
2019-01-03T09:07:57.645Z,1025.66
2019-01-03T09:08:57.608Z,1025.62
2019-01-03T09:09:57.583Z,1025.63
2019-01-03T09:10:57.598Z,1025.69
2019-01-03T09:11:57.552Z,1025.71
2019-01-03T09:12:57.611Z,1025.70
2019-01-03T09:13:57.539Z,1025.71
2019-01-03T09:14:57.511Z,1025.70
2019-01-03T09:15:57.550Z,1025.65
2019-01-03T09:16:57.534Z,1025.66
2019-01-03T09:17:57.500Z,1025.67
2019-01-03T09:18:57.532Z,1025.73
2019-01-03T09:19:57.521Z,1025.70
2019-01-03T09:20:57.435Z,1025.70
2019-01-03T09:21:57.449Z,1025.66
2019-01-03T09:22:57.444Z,1025.64
2019-01-03T09:23:57.396Z,1025.65
2019-01-03T09:24:57.381Z,1025.63
2019-01-03T09:25:57.412Z,1025.60
2019-01-03T09:27:05.049Z,1025.62
2019-01-03T09:29:10.900Z,1025.67
2019-01-03T09:30:01.810Z,1025.73
2019-01-03T09:31:01.790Z,1025.79
2019-01-03T09:32:01.775Z,1025.84
2019-01-03T09:33:01.789Z,1025.87
2019-01-03T09:34:01.765Z,1025.86
2019-01-03T09:35:01.772Z,1025.95
2019-01-03T09:36:01.744Z,1025.90
2019-01-03T09:37:01.739Z,1025.88
2019-01-03T09:38:01.730Z,1025.84
2019-01-03T09:39:01.673Z,1025.82
2019-01-03T09:40:01.694Z,1025.79
2019-01-03T09:41:01.675Z,1025.81
2019-01-03T09:42:01.637Z,1025.81
2019-01-03T09:43:01.625Z,1025.84
2019-01-03T09:44:01.611Z,1025.77
2019-01-03T09:45:01.624Z,1025.74
2019-01-03T09:46:01.606Z,1025.68
2019-01-03T09:47:01.591Z,1025.66
2019-01-03T09:48:01.554Z,1025.67
2019-01-03T09:49:01.590Z,1025.62
2019-01-03T09:50:01.538Z,1025.66
2019-01-03T09:51:01.553Z,1025.63
2019-01-03T09:52:01.550Z,1025.62
2019-01-03T09:53:01.532Z,1025.67
2019-01-03T09:54:01.478Z,1025.63
2019-01-03T09:55:01.476Z,1025.65
2019-01-03T09:56:01.459Z,1025.70
2019-01-03T09:57:01.489Z,1025.67
2019-01-03T09:58:01.433Z,1025.70
2019-01-03T09:59:01.435Z,1025.71
2019-01-03T10:00:01.418Z,1025.70
2019-01-03T10:01:01.388Z,1025.70
2019-01-03T10:02:01.464Z,1025.69
2019-01-03T10:03:01.404Z,1025.74
2019-01-03T10:04:10.032Z,1025.69
2019-01-03T10:05:54.790Z,1025.71
2019-01-03T10:06:54.760Z,1025.73
2019-01-03T10:07:54.749Z,1025.66
2019-01-03T10:08:54.713Z,1025.70
2019-01-03T10:09:54.682Z,1025.68
2019-01-03T10:10:54.714Z,1025.72
2019-01-03T10:11:54.674Z,1025.66
2019-01-03T10:12:54.638Z,1025.70
2019-01-03T10:13:54.633Z,1025.70
2019-01-03T10:14:54.644Z,1025.67
2019-01-03T10:15:54.640Z,1025.67
2019-01-03T10:16:54.630Z,1025.66
2019-01-03T10:17:54.574Z,1025.66
2019-01-03T10:18:54.581Z,1025.67
2019-01-03T10:19:54.584Z,1025.68
2019-01-03T10:20:54.568Z,1025.65
2019-01-03T10:21:54.519Z,1025.61
2019-01-03T10:22:54.566Z,1025.56
2019-01-03T10:23:54.525Z,1025.55
2019-01-03T10:24:54.480Z,1025.63
2019-01-03T10:25:54.517Z,1025.60
2019-01-03T10:26:54.460Z,1025.57
2019-01-03T10:27:54.479Z,1025.60
2019-01-03T10:28:54.434Z,1025.61
2019-01-03T10:29:54.419Z,1025.59
2019-01-03T10:30:54.430Z,1025.61
2019-01-03T10:31:54.442Z,1025.59
2019-01-03T10:32:54.385Z,1025.58
2019-01-03T10:33:54.485Z,1025.54
2019-01-03T10:34:54.358Z,1025.52
2019-01-03T10:35:54.340Z,1025.49
2019-01-03T10:36:54.364Z,1025.45
2019-01-03T10:37:54.498Z,1025.45
2019-01-03T10:38:54.308Z,1025.39
2019-01-03T10:40:03.225Z,1025.49
2019-01-03T10:41:58.921Z,1025.49
2019-01-03T10:42:58.820Z,1025.49
2019-01-03T10:43:58.723Z,1025.50
2019-01-03T10:44:58.715Z,1025.47
2019-01-03T10:45:58.738Z,1025.48
2019-01-03T10:46:58.667Z,1025.45
2019-01-03T10:47:59.416Z,1025.46
2019-01-03T10:48:58.658Z,1025.44
2019-01-03T10:49:58.673Z,1025.47
2019-01-03T10:50:58.642Z,1025.41
2019-01-03T10:51:58.604Z,1025.44
2019-01-03T10:52:58.629Z,1025.45
2019-01-03T10:53:58.596Z,1025.37
2019-01-03T10:54:58.571Z,1025.33
2019-01-03T10:55:58.590Z,1025.34
2019-01-03T10:57:07.205Z,1025.31
2019-01-03T10:59:04.066Z,1025.25
2019-01-03T11:00:04.000Z,1025.22
2019-01-03T11:01:03.986Z,1025.20
2019-01-03T11:02:03.982Z,1025.16
2019-01-03T11:03:03.961Z,1025.22
2019-01-03T11:04:03.961Z,1025.20
2019-01-03T11:05:03.941Z,1025.13
2019-01-03T11:06:03.929Z,1025.15
2019-01-03T11:07:03.907Z,1025.11
2019-01-03T11:08:03.929Z,1025.13
2019-01-03T11:09:03.903Z,1025.12
2019-01-03T11:10:03.910Z,1025.10
2019-01-03T11:11:03.858Z,1025.10
2019-01-03T11:12:03.842Z,1025.07
2019-01-03T11:13:03.837Z,1025.09
2019-01-03T11:14:03.860Z,1025.09
2019-01-03T11:15:03.821Z,1025.07
2019-01-03T11:16:03.825Z,1025.07
2019-01-03T11:17:03.791Z,1025.06
2019-01-03T11:18:03.794Z,1025.07
2019-01-03T11:19:03.756Z,1025.05
2019-01-03T11:20:03.786Z,1025.06
2019-01-03T11:21:03.792Z,1025.05
2019-01-03T11:22:03.715Z,1025.12
2019-01-03T11:23:03.715Z,1025.06
2019-01-03T11:24:03.735Z,1025.10
2019-01-03T11:25:03.703Z,1025.07
2019-01-03T11:26:03.668Z,1025.07
2019-01-03T11:27:03.652Z,1025.04
2019-01-03T11:28:03.639Z,1025.03
2019-01-03T11:29:03.620Z,1025.06
2019-01-03T11:30:03.617Z,1025.02
2019-01-03T11:31:03.601Z,1024.97
2019-01-03T11:32:03.601Z,1024.99
2019-01-03T11:33:03.573Z,1024.99
2019-01-03T11:34:03.562Z,1024.96
2019-01-03T11:35:03.547Z,1024.97
2019-01-03T11:36:03.538Z,1024.95
2019-01-03T11:37:03.573Z,1024.91
2019-01-03T11:38:03.515Z,1024.92
2019-01-03T11:39:03.498Z,1024.86
2019-01-03T11:40:03.479Z,1024.82
2019-01-03T11:41:03.481Z,1024.86
2019-01-03T11:42:03.465Z,1024.86
2019-01-03T11:43:03.455Z,1024.82
2019-01-03T11:44:03.444Z,1024.85
2019-01-03T11:45:03.422Z,1024.83
2019-01-03T11:46:03.416Z,1024.81
2019-01-03T11:47:03.393Z,1024.84
2019-01-03T11:48:03.379Z,1024.72
2019-01-03T11:49:03.368Z,1024.74
2019-01-03T11:50:03.379Z,1024.66
2019-01-03T11:51:03.358Z,1024.63
2019-01-03T11:52:03.360Z,1024.67
2019-01-03T11:53:03.318Z,1024.62
2019-01-03T11:54:03.305Z,1024.61
2019-01-03T11:55:03.296Z,1024.62
2019-01-03T11:56:03.284Z,1024.61
2019-01-03T11:57:03.302Z,1024.61
2019-01-03T11:58:03.293Z,1024.56
2019-01-03T11:59:03.339Z,1024.60
2019-01-03T12:00:03.229Z,1024.55
2019-01-03T12:01:03.247Z,1024.57
2019-01-03T12:02:03.209Z,1024.54
2019-01-03T12:03:03.225Z,1024.52
2019-01-03T12:04:03.185Z,1024.52
2019-01-03T12:05:03.172Z,1024.47
2019-01-03T12:06:03.218Z,1024.45
2019-01-03T12:07:03.166Z,1024.41
2019-01-03T12:08:03.209Z,1024.38
2019-01-03T12:09:03.192Z,1024.36
2019-01-03T12:10:03.113Z,1024.38
2019-01-03T12:11:03.092Z,1024.36
2019-01-03T12:12:03.098Z,1024.37
2019-01-03T12:13:03.078Z,1024.32
2019-01-03T12:14:03.066Z,1024.38
2019-01-03T12:15:03.043Z,1024.36
2019-01-03T12:16:03.056Z,1024.41
2019-01-03T12:17:03.033Z,1024.42
2019-01-03T12:18:03.149Z,1024.36
2019-01-03T12:19:03.141Z,1024.42
2019-01-03T12:20:03.100Z,1024.34
2019-01-03T12:21:03.206Z,1024.36
2019-01-03T12:22:03.045Z,1024.33
2019-01-03T12:23:03.067Z,1024.35
2019-01-03T12:24:03.004Z,1024.37
2019-01-03T12:25:03.324Z,1024.39
2019-01-03T12:26:03.026Z,1024.39
2019-01-03T12:27:03.010Z,1024.37
2019-01-03T12:28:03.042Z,1024.38
2019-01-03T12:29:02.967Z,1024.33
2019-01-03T12:30:02.877Z,1024.32
2019-01-03T12:31:02.843Z,1024.36
2019-01-03T12:32:02.835Z,1024.34
2019-01-03T12:33:02.819Z,1024.34
2019-01-03T12:34:02.833Z,1024.37
2019-01-03T12:35:02.791Z,1024.37
2019-01-03T12:36:02.783Z,1024.39
2019-01-03T12:37:02.782Z,1024.43
2019-01-03T12:38:02.768Z,1024.44
2019-01-03T12:39:02.806Z,1024.43
2019-01-03T12:40:02.729Z,1024.43
2019-01-03T12:41:02.719Z,1024.44
2019-01-03T12:42:02.713Z,1024.42
2019-01-03T12:43:02.699Z,1024.39
2019-01-03T12:44:02.694Z,1024.37